Map

Track Data

SID SEASON NUMBER BASIN SUBBASIN NAME ISO_TIME NATURE LAT LON WMO_WIND WMO_PRES WMO_AGENCY TRACK_TYPE DIST2LAND LANDFALL IFLAG USA_AGENCY USA_ATCF_ID USA_LAT USA_LON USA_RECORD USA_STATUS USA_WIND USA_PRES USA_SSHS USA_R34_NE USA_R34_SE USA_R34_SW USA_R34_NW USA_R50_NE USA_R50_SE USA_R50_SW USA_R50_NW USA_R64_NE USA_R64_SE USA_R64_SW USA_R64_NW USA_POCI USA_ROCI USA_RMW USA_EYE TOKYO_LAT TOKYO_LON TOKYO_GRADE TOKYO_WIND TOKYO_PRES TOKYO_R50_DIR TOKYO_R50_LONG TOKYO_R50_SHORT TOKYO_R30_DIR TOKYO_R30_LONG TOKYO_R30_SHORT TOKYO_LAND CMA_LAT CMA_LON CMA_CAT CMA_WIND CMA_PRES HKO_LAT HKO_LON HKO_CAT HKO_WIND HKO_PRES NEWDELHI_LAT NEWDELHI_LON NEWDELHI_GRADE NEWDELHI_WIND NEWDELHI_PRES NEWDELHI_CI NEWDELHI_DP NEWDELHI_POCI REUNION_LAT REUNION_LON REUNION_TYPE REUNION_WIND REUNION_PRES REUNION_TNUM REUNION_CI REUNION_RMW REUNION_R34_NE REUNION_R34_SE REUNION_R34_SW REUNION_R34_NW REUNION_R50_NE REUNION_R50_SE REUNION_R50_SW REUNION_R50_NW REUNION_R64_NE REUNION_R64_SE REUNION_R64_SW REUNION_R64_NW BOM_LAT BOM_LON BOM_TYPE BOM_WIND BOM_PRES BOM_TNUM BOM_CI BOM_RMW BOM_R34_NE BOM_R34_SE BOM_R34_SW BOM_R34_NW BOM_R50_NE BOM_R50_SE BOM_R50_SW BOM_R50_NW BOM_R64_NE BOM_R64_SE BOM_R64_SW BOM_R64_NW BOM_ROCI BOM_POCI BOM_EYE BOM_POS_METHOD BOM_PRES_METHOD NADI_LAT NADI_LON NADI_CAT NADI_WIND NADI_PRES WELLINGTON_LAT WELLINGTON_LON WELLINGTON_WIND WELLINGTON_PRES DS824_LAT DS824_LON DS824_STAGE DS824_WIND DS824_PRES TD9636_LAT TD9636_LON TD9636_STAGE TD9636_WIND TD9636_PRES TD9635_LAT TD9635_LON TD9635_WIND TD9635_PRES TD9635_ROCI NEUMANN_LAT NEUMANN_LON NEUMANN_CLASS NEUMANN_WIND NEUMANN_PRES MLC_LAT MLC_LON MLC_CLASS MLC_WIND MLC_PRES USA_GUST BOM_GUST BOM_GUST_PER REUNION_GUST REUNION_GUST_PER USA_SEAHGT USA_SEARAD_NE USA_SEARAD_SE USA_SEARAD_SW USA_SEARAD_NW STORM_SPEED STORM_DIR
1951316N08063 1951 85 NI AS NOT_NAMED 1951-11-11 18:00:00 TS 7.70000 63.4000 main 1118 1112 O________O____ jtwc_io IO141951 7.70000 63.4000 -1 7.70000 63.4000 TC 1 0
1951316N08063 1951 85 NI AS NOT_NAMED 1951-11-11 21:00:00 TS 7.76250 63.4025 main 1112 1107 P________P____ IO141951 7.76250 63.4025 -1 7.76250 63.4025 TC 2 8
1951316N08063 1951 85 NI AS NOT_NAMED 1951-11-12 00:00:00 TS 7.90000 63.4000 main 1107 1096 O________O____ jtwc_io IO141951 7.90000 63.4000 -1 7.90000 63.4000 TC 25 4 0
1951316N08063 1951 85 NI AS NOT_NAMED 1951-11-12 03:00:00 TS 8.16667 63.3934 main 1091 1076 P________PO___ IO141951 8.16250 63.3925 -1 8.16250 63.3925 TC 25 8.20000 63.4000 1 6 0
1951316N08063 1951 85 NI AS NOT_NAMED 1951-11-12 06:00:00 TS 8.50563 63.4016 main 1076 1061 O________OP___ jtwc_io IO141951 8.50000 63.4000 -1 8.50000 63.4000 TC 25 8.52813 63.4079 1 7 2
1951316N08063 1951 85 NI AS NOT_NAMED 1951-11-12 09:00:00 TS 8.85137 63.4370 main 1057 1054 P________PP___ IO141951 8.85000 63.4425 -1 8.85000 63.4425 TC 25 8.85501 63.4226 1 7 7
1951316N08063 1951 85 NI AS NOT_NAMED 1951-11-12 12:00:00 TS 9.19313 63.4837 main 1054 1042 O________OP___ jtwc_io IO141951 9.20000 63.5000 -1 9.20000 63.5000 TC 25 9.17938 63.4510 1 7 8
1951316N08063 1951 85 NI AS NOT_NAMED 1951-11-12 15:00:00 TS 9.50499 63.5284 main 1042 1038 P________PO___ IO141951 9.50749 63.5425 -1 9.50749 63.5425 TC 25 9.50000 63.5000 1 6 10
1951316N08063 1951 85 NI AS NOT_NAMED 1951-11-12 18:00:00 TS 9.80510 63.5914 main 1041 1034 O________OP___ jtwc_io IO141951 9.80000 63.6000 -1 9.80000 63.6000 TC 25 9.81531 63.5743 1 6 14
1951316N08063 1951 85 NI AS NOT_NAMED 1951-11-12 21:00:00 TS 10.1075 63.6850 main 1041 1035 P________PP___ IO141951 10.1000 63.6925 -1 10.1000 63.6925 TC 25 10.1225 63.6700 1 6 18
1951316N08063 1951 85 NI AS NOT_NAMED 1951-11-13 00:00:00 TS 10.4061 63.7935 main 1043 1038 O________OP___ jtwc_io IO141951 10.4000 63.8000 -1 10.4000 63.8000 TC 25 10.4184 63.7806 1 6 19
1951316N08063 1951 85 NI AS NOT_NAMED 1951-11-13 03:00:00 TS 10.7050 63.8950 main 1046 1043 P________PO___ IO141951 10.7075 63.8925 -1 10.7075 63.8925 TC 30 10.7000 63.9000 1 6 20
1951316N08063 1951 85 NI AS NOT_NAMED 1951-11-13 06:00:00 TS 10.9868 64.0060 main 1050 1048 O________OP___ jtwc_io IO141951 11.0000 64.0000 -1 11.0000 64.0000 TC 35 10.9603 64.0179 1 6 25
1951316N08063 1951 85 NI AS NOT_NAMED 1951-11-13 09:00:00 TS 11.2458 64.1475 main 1056 1056 P________PP___ IO141951 11.2650 64.1500 -1 11.2650 64.1500 TC 35 11.2075 64.1426 1 6 29
1951316N08063 1951 85 NI AS NOT_NAMED 1951-11-13 12:00:00 TS 11.4836 64.2903 main 1073 1072 O________OP___ jtwc_io IO141951 11.5000 64.3000 -1 11.5000 64.3000 TC 35 11.4509 64.2710 1 5 29
1951316N08063 1951 85 NI AS NOT_NAMED 1951-11-13 15:00:00 TS 11.6950 64.4001 main 1080 1070 P________PO___ IO141951 11.6925 64.4001 -1 11.6925 64.4001 TC 35 11.7000 64.4000 3 5 27
1951316N08063 1951 85 NI AS NOT_NAMED 1951-11-13 18:00:00 TS 11.9050 64.5084 main 1070 1057 O________OP___ jtwc_io IO141951 11.9000 64.5000 -1 11.9000 64.5000 TC 35 11.9150 64.5253 3 5 28
1951316N08063 1951 85 NI AS NOT_NAMED 1951-11-13 21:00:00 TS 12.1617 64.6501 main 1043 1018 P________PP___ IO141951 12.1700 64.6500 -1 12.1700 64.6500 TC 35 12.1451 64.6504 3 6 26
1951316N08063 1951 85 NI AS NOT_NAMED 1951-11-14 00:00:00 TS 12.4758 64.7918 main 1018 994 O________OP___ jtwc_io IO141951 12.5000 64.8000 -1 12.5000 64.8000 TC 35 12.4275 64.7753 3 7 20
1951316N08063 1951 85 NI AS NOT_NAMED 1951-11-14 03:00:00 TS 12.8317 64.9001 main 994 961 P________PO___ IO141951 12.8475 64.9001 -1 12.8475 64.9001 TC 35 12.8000 64.9000 3 9 15
1951316N08063 1951 85 NI AS NOT_NAMED 1951-11-14 06:00:00 TS 13.3063 65.0110 main 961 926 O________OP___ jtwc_io IO141951 13.3000 65.0000 -1 13.3000 65.0000 TC 35 13.3188 65.0329 3 11 13
1951316N08063 1951 85 NI AS NOT_NAMED 1951-11-14 09:00:00 TS 13.9217 65.1548 main 916 883 P________PP___ IO141951 13.9200 65.1499 -1 13.9200 65.1499 TC 35 13.9251 65.1647 3 13 12
1951316N08063 1951 85 NI AS NOT_NAMED 1951-11-14 12:00:00 TS 14.5896 65.2964 main 883 832 O________OP___ jtwc_io IO141951 14.6000 65.3000 -1 14.6000 65.3000 TC 35 14.5689 65.2892 3 13 11
1951316N08063 1951 85 NI AS NOT_NAMED 1951-11-14 15:00:00 TS 15.2000 65.4051 main 832 772 P________PO___ IO141951 15.2000 65.4076 -1 15.2000 65.4076 TC 35 15.2000 65.4000 3 12 9
1951316N08063 1951 85 NI AS NOT_NAMED 1951-11-14 18:00:00 TS 15.8106 65.5005 main 772 706 O________OP___ jtwc_io IO141951 15.8000 65.5000 -1 15.8000 65.5000 TC 35 15.8317 65.5016 3 13 8
1951316N08063 1951 85 NI AS NOT_NAMED 1951-11-14 21:00:00 TS 16.4933 65.6057 main 706 658 P________PP___ IO141951 16.5250 65.6149 -1 16.5250 65.6149 TC 50 16.4298 65.5874 3 13 8
1951316N08063 1951 85 NI AS NOT_NAMED 1951-11-15 00:00:00 TS 17.0460 65.6849 main 658 635 O________OP___ jtwc_io IO141951 17.1000 65.7000 -1 17.1000 65.7000 TC 65 16.9380 65.6546 3 8 7
1951316N08063 1951 85 NI AS NOT_NAMED 1951-11-15 03:00:00 TS 17.2983 65.7101 main 635 635 P________PO___ IO141951 17.2975 65.7151 -1 17.2975 65.7151 TC 65 17.3000 65.7000 4 3 0
1951316N08063 1951 85 NI AS NOT_NAMED 1951-11-15 06:00:00 TS 17.3503 65.7073 main 627 627 O________OP___ jtwc_io IO141951 17.3000 65.7000 -1 17.3000 65.7000 TC 65 17.4509 65.7218 4 1 339
1951316N08063 1951 85 NI AS NOT_NAMED 1951-11-15 09:00:00 TS 17.3625 65.7076 main 627 627 P________PP___ IO141951 17.3150 65.7000 -1 17.3150 65.7000 TC 65 17.4574 65.7228 4 0 0
1951316N08063 1951 85 NI AS NOT_NAMED 1951-11-15 12:00:00 TS 17.3284 65.7041 main 635 635 O________OP___ jtwc_io IO141951 17.3000 65.7000 -1 17.3000 65.7000 TC 65 17.3853 65.7123 4 1 0
1951316N08063 1951 85 NI AS NOT_NAMED 1951-11-15 15:00:00 TS 17.3000 65.7000 main 635 635 P________PO___ IO141951 17.3000 65.7000 -1 17.3000 65.7000 TC 65 17.3000 65.7000 4 1 195
1951316N08063 1951 85 NI AS NOT_NAMED 1951-11-15 18:00:00 TS 17.2743 65.6920 main 635 635 O________OP___ jtwc_io IO141951 17.3000 65.7000 -1 17.3000 65.7000 TC 65 17.2228 65.6759 4 1 0
1951316N08063 1951 85 NI AS NOT_NAMED 1951-11-15 21:00:00 TS 17.2425 65.6802 main 643 635 P________PP___ IO141951 17.2850 65.6925 -1 17.2850 65.6925 TC 65 17.1575 65.6555 4 0 0
1951316N08063 1951 85 NI AS NOT_NAMED 1951-11-16 00:00:00 TS 17.2545 65.6858 main 635 635 O________OP___ jtwc_io IO141951 17.3000 65.7000 -1 17.3000 65.7000 TC 65 17.1634 65.6574 4 1 36
1951316N08063 1951 85 NI AS NOT_NAMED 1951-11-16 03:00:00 TS 17.3067 65.7185 main 635 612 P________PO___ IO141951 17.3100 65.7277 -1 17.3100 65.7277 TC 50 17.3000 65.7000 4 3 19
1951316N08063 1951 85 NI AS NOT_NAMED 1951-11-16 06:00:00 TS 17.5556 65.7968 main 604 557 O________OP___ jtwc_io IO141951 17.5000 65.8000 -1 17.5000 65.8000 TC 35 17.6668 65.7903 4 8 14
1951316N08063 1951 85 NI AS NOT_NAMED 1951-11-16 09:00:00 TS 18.0850 65.9264 main 557 495 P________PP___ IO141951 18.0475 65.9274 -1 18.0475 65.9274 TC 35 18.1600 65.9246 4 12 14
1951316N08063 1951 85 NI AS NOT_NAMED 1951-11-16 12:00:00 TS 18.6994 66.0989 main 495 439 O________OP___ jtwc_io IO141951 18.7000 66.1000 -1 18.7000 66.1000 TC 35 18.6981 66.0966 4 12 17
1951316N08063 1951 85 NI AS NOT_NAMED 1951-11-16 15:00:00 TS 19.1966 66.2851 main 439 391 P________PO___ IO141951 19.1949 66.2776 -1 19.1949 66.2776 TC 35 19.2000 66.3000 3 10 24
1951316N08063 1951 85 NI AS NOT_NAMED 1951-11-16 18:00:00 TS 19.5957 66.5178 main 391 345 O________OP___ jtwc_io IO141951 19.6000 66.5000 -1 19.6000 66.5000 TC 35 19.5871 66.5533 3 9 34
1951316N08063 1951 85 NI AS NOT_NAMED 1951-11-16 21:00:00 TS 19.9369 66.8147 main 345 299 P________PP___ IO141951 19.9451 66.8074 -1 19.9451 66.8074 TC 35 19.9204 66.8294 3 8 42
1951316N08063 1951 85 NI AS NOT_NAMED 1951-11-17 00:00:00 TS 20.1978 67.0969 main 299 269 O________OP___ jtwc_io IO141951 20.2000 67.1000 -1 20.2000 67.1000 TC 35 20.1934 67.0908 3 6 45
1951316N08063 1951 85 NI AS NOT_NAMED 1951-11-17 03:00:00 TS 20.3916 67.2968 main 269 254 P________PO___ IO141951 20.3874 67.2951 -1 20.3874 67.2951 TC 35 20.4000 67.3000 3 4 42
1951316N08063 1951 85 NI AS NOT_NAMED 1951-11-17 06:00:00 TS 20.5145 67.4013 main 254 245 O________OP___ jtwc_io IO141951 20.5000 67.4000 -1 20.5000 67.4000 TC 35 20.5435 67.4040 3 2 33
1951316N08063 1951 85 NI AS NOT_NAMED 1951-11-17 09:00:00 TS 20.5799 67.4228 main 245 245 P________PP___ IO141951 20.5575 67.4076 -1 20.5575 67.4076 TC 35 20.6247 67.4532 3 1 14
1951316N08063 1951 85 NI AS NOT_NAMED 1951-11-17 12:00:00 TS 20.6229 67.4252 main 245 230 O________OP___ jtwc_io IO141951 20.6000 67.4000 -1 20.6000 67.4000 TC 35 20.6686 67.4757 3 1 29
1951316N08063 1951 85 NI AS NOT_NAMED 1951-11-17 15:00:00 TS 20.7000 67.4950 main 230 214 P________PO___ IO141951 20.7000 67.4925 -1 20.7000 67.4925 TC 35 20.7000 67.5000 3 2 43
1951316N08063 1951 85 NI AS NOT_NAMED 1951-11-17 18:00:00 TS 20.7757 67.5794 main 214 214 O________OP___ jtwc_io IO141951 20.8000 67.6000 -1 20.8000 67.6000 TC 35 20.7392 67.5485 3 2 48
1951316N08063 1951 85 NI AS NOT_NAMED 1951-11-17 21:00:00 TS 20.8304 67.6456 main 214 199 P________PP___ IO141951 20.8625 67.6650 -1 20.8625 67.6650 TC 30 20.7877 67.6197 3 2 51
1951316N08063 1951 85 NI AS NOT_NAMED 1951-11-18 00:00:00 TS 20.8712 67.7030 main 199 193 O________OP___ jtwc_io IO141951 20.9000 67.7000 -1 20.9000 67.7000 TC 25 20.8423 67.7060 3 2 64
1951316N08063 1951 85 NI AS NOT_NAMED 1951-11-18 03:00:00 NR 20.9000 67.8000 main 193 __________O___ IO141951 -1 TC 20.9000 67.8000 1 2 73

About IBTrACS Database

This database is a web-friendly format of International Best Track Archive for Climate Stewardship (IBTrACS), a global best track data archive curated by NOAA dating back to 1842.

Updated: 2021-12-03